Time;durP1;ratioP1;P1;durP2;ratioP2;P2;SDS_P1;SDS_P2;PMS_P1;PMS_P2;Temp;Humidity;BMP_temperature;BMP_pressure;BME280_temperature;BME280_humidity;BME280_pressure;Samples;Min_cycle;Max_cycle;Signal;HPM_P1;HPM_P2
2024/03/27 00:01:05;;;;;;;;;;;;;;;;;;5092471;28;19919;-69
2024/03/27 00:03:31;;;;;;;;;;;;;;;;;;5092806;28;19908;-68
2024/03/27 00:05:56;;;;;;;;;;;;;;;;;;5092721;28;19923;-69
2024/03/27 00:08:22;;;;;;;;;;;;;;;;;;5092560;28;19912;-70
2024/03/27 00:10:47;;;;;;;;;;;;;;;;;;5092870;28;20337;-70
2024/03/27 00:13:12;;;;;;;;;;;;;;;;;;5092339;28;20380;-70
2024/03/27 00:15:37;;;;;;;;;;;;;;;;;;5092168;28;19912;-69
2024/03/27 00:18:02;;;;;;;;;;;;;;;;;;5092435;28;19912;-68
2024/03/27 00:20:28;;;;;;;;;;;;;;;;;;5092164;28;19912;-69
2024/03/27 00:22:53;;;;;;;;;;;;;;;;;;5092088;28;19913;-70
2024/03/27 00:25:19;;;;;;;;;;;;;;;;;;5092210;28;20318;-69
2024/03/27 00:27:44;;;;;;;;;;;;;;;;;;5092755;28;19931;-69
2024/03/27 00:30:09;;;;;;;;;;;;;;;;;;5092230;28;19912;-69
2024/03/27 00:32:34;;;;;;;;;;;;;;;;;;5092313;28;20384;-69
2024/03/27 00:34:59;;;;;;;;;;;;;;;;;;5096041;28;19919;-70
2024/03/27 00:37:25;;;;;;;;;;;;;;;;;;5092778;28;19908;-70
2024/03/27 00:39:51;;;;;;;;;;;;;;;;;;5092781;28;19971;-69
2024/03/27 00:42:16;;;;;;;;;;;;;;;;;;5091761;28;19970;-70
2024/03/27 00:44:41;;;;;;;;;;;;;;;;;;5092259;28;19934;-69
2024/03/27 00:47:06;;;;;;;;;;;;;;;;;;5091738;28;19915;-70
2024/03/27 00:49:31;;;;;;;;;;;;;;;;;;5091755;28;19908;-70
2024/03/27 00:51:57;;;;;;;;;;;;;;;;;;5092025;28;19912;-70
2024/03/27 00:54:22;;;;;;;;;;;;;;;;;;5092611;28;19958;-69
2024/03/27 00:56:47;;;;;;;;;;;;;;;;;;5091608;28;20007;-70
2024/03/27 00:59:12;;;;;;;;;;;;;;;;;;5091557;28;19915;-69
2024/03/27 01:01:37;;;;;;;;;;;;;;;;;;5092024;28;19958;-68
2024/03/27 01:04:02;;;;;;;;;;;;;;;;;;5092390;28;19912;-69
2024/03/27 01:06:27;;;;;;;;;;;;;;;;;;5091117;28;20400;-69
2024/03/27 01:08:52;;;;;;;;;;;;;;;;;;5093307;28;20361;-68
2024/03/27 01:11:17;;;;;;;;;;;;;;;;;;5098198;28;20361;-70
2024/03/27 01:13:43;;;;;;;;;;;;;;;;;;5095885;28;20265;-69
2024/03/27 01:16:08;;;;;;;;;;;;;;;;;;5096083;28;20557;-69
2024/03/27 01:18:33;;;;;;;;;;;;;;;;;;5096241;28;20711;-69
2024/03/27 01:20:58;;;;;;;;;;;;;;;;;;5095815;28;20330;-68
2024/03/27 01:23:23;;;;;;;;;;;;;;;;;;5095588;28;19908;-71
2024/03/27 01:25:49;;;;;;;;;;;;;;;;;;5095533;28;19915;-70
2024/03/27 01:28:14;;;;;;;;;;;;;;;;;;5095491;28;20008;-68
2024/03/27 01:30:39;;;;;;;;;;;;;;;;;;5095309;28;19908;-69
2024/03/27 01:33:04;;;;;;;;;;;;;;;;;;5096310;28;19927;-69
2024/03/27 01:35:29;;;;;;;;;;;;;;;;;;5096239;28;19915;-70
2024/03/27 01:37:54;;;;;;;;;;;;;;;;;;5095240;28;19914;-68
2024/03/27 01:40:19;;;;;;;;;;;;;;;;;;5099487;28;19970;-69
2024/03/27 01:42:45;;;;;;;;;;;;;;;;;;5095259;28;19923;-70
2024/03/27 01:45:10;;;;;;;;;;;;;;;;;;5095261;28;19965;-69
2024/03/27 01:47:35;;;;;;;;;;;;;;;;;;5095030;28;19908;-70
2024/03/27 01:50:00;;;;;;;;;;;;;;;;;;5112923;28;19907;-69
2024/03/27 01:52:26;;;;;;;;;;;;;;;;;;5100042;28;19952;-70
2024/03/27 01:54:51;;;;;;;;;;;;;;;;;;5095330;28;20313;-69
2024/03/27 01:57:17;;;;;;;;;;;;;;;;;;5096759;28;19944;-69
2024/03/27 01:59:42;;;;;;;;;;;;;;;;;;5097488;28;19939;-68
2024/03/27 02:02:07;;;;;;;;;;;;;;;;;;5102340;28;19916;-70
2024/03/27 02:04:32;;;;;;;;;;;;;;;;;;5113979;28;19919;-70
2024/03/27 02:06:57;;;;;;;;;;;;;;;;;;5105062;28;19912;-68
2024/03/27 02:09:22;;;;;;;;;;;;;;;;;;5095321;28;20376;-70
2024/03/27 02:11:47;;;;;;;;;;;;;;;;;;5094962;28;20410;-70
2024/03/27 02:14:14;;;;;;;;;;;;;;;;;;5109491;28;20687;-70
2024/03/27 02:16:39;;;;;;;;;;;;;;;;;;5105600;28;19912;-69
2024/03/27 02:19:04;;;;;;;;;;;;;;;;;;5104784;28;19939;-70
2024/03/27 02:21:29;;;;;;;;;;;;;;;;;;5093181;28;19919;-70
2024/03/27 02:23:55;;;;;;;;;;;;;;;;;;5094694;28;19962;-70
2024/03/27 02:26:20;;;;;;;;;;;;;;;;;;5098928;28;19912;-64
2024/03/27 02:28:45;;;;;;;;;;;;;;;;;;5109582;28;20346;-70
2024/03/27 02:31:10;;;;;;;;;;;;;;;;;;5102158;28;20295;-70
2024/03/27 02:33:35;;;;;;;;;;;;;;;;;;5096795;28;20292;-68
2024/03/27 02:36:00;;;;;;;;;;;;;;;;;;5096442;28;20288;-70
2024/03/27 02:38:27;;;;;;;;;;;;;;;;;;5110358;28;20332;-69
2024/03/27 02:40:52;;;;;;;;;;;;;;;;;;5102218;28;19924;-69
2024/03/27 02:43:17;;;;;;;;;;;;;;;;;;5101708;28;19938;-69
2024/03/27 02:45:42;;;;;;;;;;;;;;;;;;5103901;28;19956;-70
2024/03/27 02:48:07;;;;;;;;;;;;;;;;;;5104324;28;19951;-69
2024/03/27 02:50:32;;;;;;;;;;;;;;;;;;5102496;28;19915;-68
2024/03/27 02:52:57;;;;;;;;;;;;;;;;;;5102760;28;19915;-70
2024/03/27 02:55:23;;;;;;;;;;;;;;;;;;5104599;28;19927;-68
2024/03/27 02:57:48;;;;;;;;;;;;;;;;;;5103888;28;19965;-69
2024/03/27 03:00:13;;;;;;;;;;;;;;;;;;5102411;28;19961;-69
2024/03/27 03:02:39;;;;;;;;;;;;;;;;;;5102754;28;20302;-68
2024/03/27 03:05:04;;;;;;;;;;;;;;;;;;5103997;28;19958;-60
2024/03/27 03:07:29;;;;;;;;;;;;;;;;;;5100535;28;19914;-60
2024/03/27 03:09:54;;;;;;;;;;;;;;;;;;5102884;28;19908;-60
2024/03/27 03:12:19;;;;;;;;;;;;;;;;;;5103351;28;20008;-59
2024/03/27 03:14:45;;;;;;;;;;;;;;;;;;5102256;28;19918;-59
2024/03/27 03:17:10;;;;;;;;;;;;;;;;;;5102482;28;19947;-59
2024/03/27 03:19:36;;;;;;;;;;;;;;;;;;5102045;28;19939;-59
2024/03/27 03:22:01;;;;;;;;;;;;;;;;;;5102697;28;19959;-61
2024/03/27 03:24:26;;;;;;;;;;;;;;;;;;5093373;28;19947;-60
2024/03/27 03:26:51;;;;;;;;;;;;;;;;;;5101844;28;19912;-60
2024/03/27 03:29:16;;;;;;;;;;;;;;;;;;5112362;28;19912;-60
2024/03/27 03:31:42;;;;;;;;;;;;;;;;;;5098750;28;19912;-60
2024/03/27 03:34:07;;;;;;;;;;;;;;;;;;5093078;28;19998;-59
2024/03/27 03:36:32;;;;;;;;;;;;;;;;;;5092981;28;20007;-60
2024/03/27 03:38:58;;;;;;;;;;;;;;;;;;5093041;28;19927;-60
2024/03/27 03:41:23;;;;;;;;;;;;;;;;;;5092922;28;19920;-59
2024/03/27 03:43:48;;;;;;;;;;;;;;;;;;5093362;28;19916;-59
2024/03/27 03:46:13;;;;;;;;;;;;;;;;;;5106644;28;19908;-59
2024/03/27 03:48:38;;;;;;;;;;;;;;;;;;5112093;28;19908;-59
2024/03/27 03:51:03;;;;;;;;;;;;;;;;;;5100581;28;19912;-59
2024/03/27 03:53:28;;;;;;;;;;;;;;;;;;5092974;28;19912;-60
2024/03/27 03:55:53;;;;;;;;;;;;;;;;;;5093203;28;19912;-58
2024/03/27 03:58:19;;;;;;;;;;;;;;;;;;5111802;28;20209;-59
2024/03/27 04:00:44;;;;;;;;;;;;;;;;;;5111388;28;20409;-59
2024/03/27 04:03:09;;;;;;;;;;;;;;;;;;5081691;28;19961;-59
2024/03/27 04:05:35;;;;;;;;;;;;;;;;;;5092360;28;20304;-59
2024/03/27 04:08:00;;;;;;;;;;;;;;;;;;5092724;28;19916;-59
2024/03/27 04:10:25;;;;;;;;;;;;;;;;;;5092631;28;19965;-60
2024/03/27 04:12:50;;;;;;;;;;;;;;;;;;5092335;28;20356;-58
2024/03/27 04:15:16;;;;;;;;;;;;;;;;;;5092413;28;19946;-59
2024/03/27 04:17:41;;;;;;;;;;;;;;;;;;5092113;28;19916;-59
2024/03/27 04:20:12;;;;;;;;;;;;;;;;;;5104150;28;19915;-60
2024/03/27 04:22:37;;;;;;;;;;;;;;;;;;5100294;28;20260;-59
2024/03/27 04:25:03;;;;;;;;;;;;;;;;;;5092568;28;20395;-60
2024/03/27 04:27:28;;;;;;;;;;;;;;;;;;5091874;28;20003;-59
2024/03/27 04:29:54;;;;;;;;;;;;;;;;;;5102998;28;20053;-60
2024/03/27 04:32:19;;;;;;;;;;;;;;;;;;5107640;28;19934;-60
2024/03/27 04:34:44;;;;;;;;;;;;;;;;;;5096898;28;19914;-60
2024/03/27 04:37:09;;;;;;;;;;;;;;;;;;5111333;28;19945;-60
2024/03/27 04:39:35;;;;;;;;;;;;;;;;;;5100441;28;21280;-60
2024/03/27 04:42:01;;;;;;;;;;;;;;;;;;5092538;28;19916;-60
2024/03/27 04:44:26;;;;;;;;;;;;;;;;;;5092655;28;19962;-61
2024/03/27 04:46:51;;;;;;;;;;;;;;;;;;5095670;28;19919;-62
2024/03/27 04:49:16;;;;;;;;;;;;;;;;;;5100874;28;20228;-61
2024/03/27 04:51:41;;;;;;;;;;;;;;;;;;5092228;28;19916;-61
2024/03/27 04:54:06;;;;;;;;;;;;;;;;;;5095519;28;19961;-60
2024/03/27 04:56:31;;;;;;;;;;;;;;;;;;5110876;28;20321;-60
2024/03/27 04:58:58;;;;;;;;;;;;;;;;;;5096748;28;20392;-61
2024/03/27 05:01:23;;;;;;;;;;;;;;;;;;5091567;28;19966;-62
2024/03/27 05:03:48;;;;;;;;;;;;;;;;;;5091639;28;19974;-61
2024/03/27 05:06:14;;;;;;;;;;;;;;;;;;5096393;28;19908;-61
2024/03/27 05:08:39;;;;;;;;;;;;;;;;;;5104941;28;19915;-61
2024/03/27 05:11:06;;;;;;;;;;;;;;;;;;5091499;28;19915;-62
2024/03/27 05:13:31;;;;;;;;;;;;;;;;;;5091779;28;19951;-61
2024/03/27 05:15:56;;;;;;;;;;;;;;;;;;5091855;28;20001;-61
2024/03/27 05:18:21;;;;;;;;;;;;;;;;;;5106604;28;19970;-61
2024/03/27 05:20:46;;;;;;;;;;;;;;;;;;5109160;28;19986;-61
2024/03/27 05:23:11;;;;;;;;;;;;;;;;;;5091959;28;19935;-61
2024/03/27 05:25:37;;;;;;;;;;;;;;;;;;5091417;28;19963;-61
2024/03/27 05:28:02;;;;;;;;;;;;;;;;;;5095081;28;19908;-61
2024/03/27 05:30:27;;;;;;;;;;;;;;;;;;5107338;28;20311;-61
2024/03/27 05:32:52;;;;;;;;;;;;;;;;;;5099585;28;20265;-61
2024/03/27 05:35:17;;;;;;;;;;;;;;;;;;5104257;28;20261;-62
2024/03/27 05:37:43;;;;;;;;;;;;;;;;;;5100839;28;20248;-62
2024/03/27 05:40:08;;;;;;;;;;;;;;;;;;5098434;28;19920;-61
2024/03/27 05:42:33;;;;;;;;;;;;;;;;;;5099203;28;20455;-61
2024/03/27 05:44:58;;;;;;;;;;;;;;;;;;5100678;28;20040;-61
2024/03/27 05:47:23;;;;;;;;;;;;;;;;;;5100772;28;19915;-60
2024/03/27 05:49:49;;;;;;;;;;;;;;;;;;5099635;28;19923;-61
2024/03/27 05:52:14;;;;;;;;;;;;;;;;;;5099660;28;19916;-61
2024/03/27 05:54:39;;;;;;;;;;;;;;;;;;5099644;28;20000;-61
2024/03/27 05:57:04;;;;;;;;;;;;;;;;;;5103948;28;19911;-61
2024/03/27 05:59:29;;;;;;;;;;;;;;;;;;5107287;28;19915;-61
2024/03/27 06:01:54;;;;;;;;;;;;;;;;;;5107426;28;19923;-61
2024/03/27 06:04:20;;;;;;;;;;;;;;;;;;5095064;28;19981;-61
2024/03/27 06:06:45;;;;;;;;;;;;;;;;;;5109355;28;20350;-61
2024/03/27 06:09:10;;;;;;;;;;;;;;;;;;5099416;28;19912;-60
2024/03/27 06:11:35;;;;;;;;;;;;;;;;;;5095356;28;19987;-61
2024/03/27 06:14:01;;;;;;;;;;;;;;;;;;5103628;28;19916;-61
2024/03/27 06:16:26;;;;;;;;;;;;;;;;;;5102583;28;19912;-61
2024/03/27 06:18:54;;;;;;;;;;;;;;;;;;5113932;28;19908;-62
2024/03/27 06:21:19;;;;;;;;;;;;;;;;;;5100317;28;19919;-62
2024/03/27 06:23:44;;;;;;;;;;;;;;;;;;5102551;28;19908;-61
2024/03/27 06:26:09;;;;;;;;;;;;;;;;;;5114013;28;19915;-62
2024/03/27 06:28:34;;;;;;;;;;;;;;;;;;5095942;28;20383;-61
2024/03/27 06:30:59;;;;;;;;;;;;;;;;;;5094499;28;20368;-62
2024/03/27 06:33:24;;;;;;;;;;;;;;;;;;5094258;28;20348;-61
2024/03/27 06:35:51;;;;;;;;;;;;;;;;;;5100316;28;19912;-69
2024/03/27 06:38:16;;;;;;;;;;;;;;;;;;5100534;28;19962;-68
2024/03/27 06:40:41;;;;;;;;;;;;;;;;;;5095466;28;19967;-68
2024/03/27 06:43:08;;;;;;;;;;;;;;;;;;5103617;28;19911;-68
2024/03/27 06:45:33;;;;;;;;;;;;;;;;;;5094228;28;19912;-61
2024/03/27 06:47:59;;;;;;;;;;;;;;;;;;5095045;28;19920;-62
2024/03/27 06:50:24;;;;;;;;;;;;;;;;;;5095308;28;20546;-61
2024/03/27 06:52:49;;;;;;;;;;;;;;;;;;5097659;28;19908;-61
2024/03/27 06:55:14;;;;;;;;;;;;;;;;;;5112430;28;19908;-61
2024/03/27 06:57:39;;;;;;;;;;;;;;;;;;5103795;28;19919;-61
2024/03/27 07:00:05;;;;;;;;;;;;;;;;;;5097013;28;19915;-61
2024/03/27 07:02:30;;;;;;;;;;;;;;;;;;5093448;28;19916;-61
2024/03/27 07:04:55;;;;;;;;;;;;;;;;;;5097086;28;19919;-61
2024/03/27 07:07:20;;;;;;;;;;;;;;;;;;5108580;28;19946;-62
2024/03/27 07:09:45;;;;;;;;;;;;;;;;;;5093803;28;19919;-61
2024/03/27 07:12:10;;;;;;;;;;;;;;;;;;5093038;28;19912;-61
2024/03/27 07:14:35;;;;;;;;;;;;;;;;;;5095411;28;19912;-61
2024/03/27 07:17:01;;;;;;;;;;;;;;;;;;5104974;28;19916;-61
2024/03/27 07:19:26;;;;;;;;;;;;;;;;;;5081724;28;19908;-62
2024/03/27 07:21:51;;;;;;;;;;;;;;;;;;5096318;28;19916;-61
2024/03/27 07:24:16;;;;;;;;;;;;;;;;;;5111669;28;20003;-62
2024/03/27 07:26:41;;;;;;;;;;;;;;;;;;5112281;28;19918;-61
2024/03/27 07:29:06;;;;;;;;;;;;;;;;;;5109810;28;19988;-62
2024/03/27 07:31:31;;;;;;;;;;;;;;;;;;5113636;28;20598;-61
2024/03/27 07:33:56;;;;;;;;;;;;;;;;;;5111056;28;20396;-61
2024/03/27 07:36:22;;;;;;;;;;;;;;;;;;5094081;28;20372;-61
2024/03/27 07:38:47;;;;;;;;;;;;;;;;;;5091304;28;20288;-62
2024/03/27 07:41:12;;;;;;;;;;;;;;;;;;5074171;28;20293;-62
2024/03/27 07:43:37;;;;;;;;;;;;;;;;;;5083771;28;19920;-61
2024/03/27 07:46:02;;;;;;;;;;;;;;;;;;5073426;28;20038;-61
2024/03/27 07:48:27;;;;;;;;;;;;;;;;;;5078030;28;20281;-61
2024/03/27 07:50:52;;;;;;;;;;;;;;;;;;5071729;28;19948;-62
2024/03/27 07:53:17;;;;;;;;;;;;;;;;;;5089783;28;19912;-62
2024/03/27 07:55:43;;;;;;;;;;;;;;;;;;5086546;28;19912;-62
2024/03/27 07:58:08;;;;;;;;;;;;;;;;;;5091395;28;19966;-62
2024/03/27 08:00:33;;;;;;;;;;;;;;;;;;5077430;28;19913;-61
2024/03/27 08:02:58;;;;;;;;;;;;;;;;;;5072381;28;19908;-61
2024/03/27 08:05:23;;;;;;;;;;;;;;;;;;5081253;28;19912;-62
2024/03/27 08:07:48;;;;;;;;;;;;;;;;;;5079501;28;19920;-62
2024/03/27 08:10:14;;;;;;;;;;;;;;;;;;5071795;28;20269;-62
2024/03/27 08:12:39;;;;;;;;;;;;;;;;;;5075523;28;19950;-61
2024/03/27 08:15:04;;;;;;;;;;;;;;;;;;5090866;28;19919;-62
2024/03/27 08:17:29;;;;;;;;;;;;;;;;;;5091226;28;19916;-63
2024/03/27 08:19:54;;;;;;;;;;;;;;;;;;5073967;28;20392;-62
2024/03/27 08:22:20;;;;;;;;;;;;;;;;;;5082803;28;19927;-62
2024/03/27 08:24:45;;;;;;;;;;;;;;;;;;5078887;28;19912;-62
2024/03/27 08:27:10;;;;;;;;;;;;;;;;;;5092010;28;20645;-62
2024/03/27 08:29:36;;;;;;;;;;;;;;;;;;5086420;28;20540;-63
2024/03/27 08:32:01;;;;;;;;;;;;;;;;;;5091683;28;19915;-62
2024/03/27 08:34:27;;;;;;;;;;;;;;;;;;5090448;28;19958;-63
2024/03/27 08:36:52;;;;;;;;;;;;;;;;;;5086669;28;19913;-61
2024/03/27 08:39:20;;;;;;;;;;;;;;;;;;5075200;28;19920;-62
2024/03/27 08:41:45;;;;;;;;;;;;;;;;;;5084377;28;19963;-63
2024/03/27 08:44:11;;;;;;;;;;;;;;;;;;5081637;28;20054;-62
2024/03/27 08:46:36;;;;;;;;;;;;;;;;;;5079742;28;19918;-62
2024/03/27 08:49:01;;;;;;;;;;;;;;;;;;5091072;28;19919;-62
2024/03/27 08:51:26;;;;;;;;;;;;;;;;;;5087770;28;19948;-62
2024/03/27 08:53:51;;;;;;;;;;;;;;;;;;5085340;28;19922;-62
2024/03/27 08:56:16;;;;;;;;;;;;;;;;;;5077963;28;20009;-69
2024/03/27 08:58:42;;;;;;;;;;;;;;;;;;5080805;28;20501;-67
2024/03/27 09:01:07;;;;;;;;;;;;;;;;;;5073556;28;20614;-67
2024/03/27 09:03:32;;;;;;;;;;;;;;;;;;5088501;28;20330;-67
2024/03/27 09:05:57;;;;;;;;;;;;;;;;;;5089739;28;20338;-68
2024/03/27 09:08:22;;;;;;;;;;;;;;;;;;5087580;28;19942;-67
2024/03/27 09:10:47;;;;;;;;;;;;;;;;;;5073140;28;20386;-68
2024/03/27 09:13:13;;;;;;;;;;;;;;;;;;5086217;28;19916;-68
2024/03/27 09:15:38;;;;;;;;;;;;;;;;;;5072950;28;19913;-68
2024/03/27 09:18:03;;;;;;;;;;;;;;;;;;5070955;28;19909;-68
2024/03/27 09:20:28;;;;;;;;;;;;;;;;;;5086691;28;19920;-69
2024/03/27 09:22:53;;;;;;;;;;;;;;;;;;5074507;28;19956;-68
2024/03/27 09:25:18;;;;;;;;;;;;;;;;;;5078559;28;19917;-68
2024/03/27 09:27:43;;;;;;;;;;;;;;;;;;5087244;28;19912;-69
2024/03/27 09:30:08;;;;;;;;;;;;;;;;;;5089501;28;19912;-68
2024/03/27 09:32:34;;;;;;;;;;;;;;;;;;5095854;28;19948;-68
2024/03/27 09:34:59;;;;;;;;;;;;;;;;;;5093525;28;20280;-68
2024/03/27 09:37:24;;;;;;;;;;;;;;;;;;5094689;28;20284;-68
2024/03/27 09:39:49;;;;;;;;;;;;;;;;;;5100705;28;19930;-69
2024/03/27 09:42:14;;;;;;;;;;;;;;;;;;5103155;28;19919;-70
2024/03/27 09:44:39;;;;;;;;;;;;;;;;;;5111095;28;19911;-70
2024/03/27 09:47:04;;;;;;;;;;;;;;;;;;5114447;28;19912;-69
2024/03/27 09:49:30;;;;;;;;;;;;;;;;;;5111583;28;19915;-69
2024/03/27 09:51:55;;;;;;;;;;;;;;;;;;5104464;28;19966;-69
2024/03/27 09:54:20;;;;;;;;;;;;;;;;;;5112106;28;19915;-69
2024/03/27 09:56:45;;;;;;;;;;;;;;;;;;5106776;28;19968;-69
2024/03/27 09:59:10;;;;;;;;;;;;;;;;;;5111668;28;19958;-70
2024/03/27 10:01:35;;;;;;;;;;;;;;;;;;5115185;28;19919;-70
2024/03/27 10:04:00;;;;;;;;;;;;;;;;;;5106263;28;20002;-70
2024/03/27 10:06:26;;;;;;;;;;;;;;;;;;5114971;28;19951;-62
2024/03/27 10:08:51;;;;;;;;;;;;;;;;;;5114459;28;19911;-62
2024/03/27 10:11:16;;;;;;;;;;;;;;;;;;5106502;28;19916;-63
2024/03/27 10:13:42;;;;;;;;;;;;;;;;;;5094687;28;19912;-62
2024/03/27 10:16:07;;;;;;;;;;;;;;;;;;5109568;28;20265;-62
2024/03/27 10:18:32;;;;;;;;;;;;;;;;;;5101113;28;19957;-62
2024/03/27 10:20:57;;;;;;;;;;;;;;;;;;5114583;28;19973;-61
2024/03/27 10:23:22;;;;;;;;;;;;;;;;;;5113838;28;19911;-61
2024/03/27 10:25:47;;;;;;;;;;;;;;;;;;5112626;28;19916;-61
2024/03/27 10:28:13;;;;;;;;;;;;;;;;;;5095255;28;19948;-64
2024/03/27 10:30:38;;;;;;;;;;;;;;;;;;5113646;28;19907;-61
2024/03/27 10:33:03;;;;;;;;;;;;;;;;;;5113696;28;20368;-63
2024/03/27 10:35:28;;;;;;;;;;;;;;;;;;5110389;28;20328;-61
2024/03/27 10:37:53;;;;;;;;;;;;;;;;;;5101684;28;19913;-62
2024/03/27 10:40:19;;;;;;;;;;;;;;;;;;5104301;28;20476;-62
2024/03/27 10:42:44;;;;;;;;;;;;;;;;;;5104385;28;19923;-62
2024/03/27 10:45:10;;;;;;;;;;;;;;;;;;5109845;28;20006;-62
2024/03/27 10:47:35;;;;;;;;;;;;;;;;;;5108922;28;20603;-61
2024/03/27 10:50:00;;;;;;;;;;;;;;;;;;5112985;28;20424;-61
2024/03/27 10:52:25;;;;;;;;;;;;;;;;;;5113807;28;20394;-61
2024/03/27 10:54:50;;;;;;;;;;;;;;;;;;5112897;28;20386;-61
2024/03/27 10:57:17;;;;;;;;;;;;;;;;;;5110008;28;20300;-62
2024/03/27 10:59:43;;;;;;;;;;;;;;;;;;5097992;28;19999;-62
2024/03/27 11:02:08;;;;;;;;;;;;;;;;;;5095614;28;20003;-62
2024/03/27 11:04:33;;;;;;;;;;;;;;;;;;5106289;28;19916;-61
2024/03/27 11:06:58;;;;;;;;;;;;;;;;;;5113778;28;19912;-62
2024/03/27 11:09:23;;;;;;;;;;;;;;;;;;5110694;28;19916;-61
2024/03/27 11:11:48;;;;;;;;;;;;;;;;;;5101810;28;19911;-62
2024/03/27 11:14:13;;;;;;;;;;;;;;;;;;5101737;28;19947;-62
2024/03/27 11:16:38;;;;;;;;;;;;;;;;;;5113656;28;19933;-62
2024/03/27 11:19:04;;;;;;;;;;;;;;;;;;5113118;28;20394;-62
2024/03/27 11:21:29;;;;;;;;;;;;;;;;;;5113592;28;20383;-61
2024/03/27 11:23:54;;;;;;;;;;;;;;;;;;5108542;28;20299;-62
2024/03/27 11:26:19;;;;;;;;;;;;;;;;;;5101114;28;20287;-62
2024/03/27 11:28:45;;;;;;;;;;;;;;;;;;5103505;28;19935;-61
2024/03/27 11:31:10;;;;;;;;;;;;;;;;;;5092843;28;20429;-62
2024/03/27 11:33:35;;;;;;;;;;;;;;;;;;5093262;28;20003;-62
2024/03/27 11:36:00;;;;;;;;;;;;;;;;;;5105178;28;19912;-61
2024/03/27 11:38:25;;;;;;;;;;;;;;;;;;5113236;28;19912;-61
2024/03/27 11:40:50;;;;;;;;;;;;;;;;;;5098694;28;19924;-61
2024/03/27 11:43:15;;;;;;;;;;;;;;;;;;5097729;28;19915;-62
2024/03/27 11:45:40;;;;;;;;;;;;;;;;;;5092698;28;19986;-62
2024/03/27 11:48:05;;;;;;;;;;;;;;;;;;5101336;28;19915;-62
2024/03/27 11:50:31;;;;;;;;;;;;;;;;;;5112039;28;19912;-61
2024/03/27 11:52:56;;;;;;;;;;;;;;;;;;5102364;28;19913;-61
2024/03/27 11:55:21;;;;;;;;;;;;;;;;;;5083765;28;19998;-62
2024/03/27 11:57:46;;;;;;;;;;;;;;;;;;5099727;28;19938;-62
2024/03/27 12:00:11;;;;;;;;;;;;;;;;;;5093486;28;19965;-62
2024/03/27 12:02:36;;;;;;;;;;;;;;;;;;5097805;28;19926;-62
2024/03/27 12:05:01;;;;;;;;;;;;;;;;;;5111185;28;20473;-62
2024/03/27 12:07:26;;;;;;;;;;;;;;;;;;5111771;28;19962;-62
2024/03/27 12:09:52;;;;;;;;;;;;;;;;;;5112073;28;19908;-61
2024/03/27 12:12:17;;;;;;;;;;;;;;;;;;5108132;28;19920;-61
2024/03/27 12:14:42;;;;;;;;;;;;;;;;;;5106398;28;19916;-62
2024/03/27 12:17:07;;;;;;;;;;;;;;;;;;5094233;28;19912;-61
2024/03/27 12:19:32;;;;;;;;;;;;;;;;;;5110550;28;19929;-61
2024/03/27 12:21:57;;;;;;;;;;;;;;;;;;5091567;28;19920;-61
2024/03/27 12:24:22;;;;;;;;;;;;;;;;;;5092236;28;19912;-62
2024/03/27 12:26:47;;;;;;;;;;;;;;;;;;5096780;28;19994;-61
2024/03/27 12:29:12;;;;;;;;;;;;;;;;;;5108015;28;19919;-61
2024/03/27 12:31:38;;;;;;;;;;;;;;;;;;5106723;28;19914;-62
2024/03/27 12:34:03;;;;;;;;;;;;;;;;;;5111409;28;19919;-61
2024/03/27 12:36:30;;;;;;;;;;;;;;;;;;5098410;28;19947;-64
2024/03/27 12:38:55;;;;;;;;;;;;;;;;;;5091706;28;19912;-62
2024/03/27 12:41:20;;;;;;;;;;;;;;;;;;5102126;28;19939;-61
2024/03/27 12:43:45;;;;;;;;;;;;;;;;;;5105840;28;19930;-62
2024/03/27 12:46:10;;;;;;;;;;;;;;;;;;5101243;28;19958;-61
2024/03/27 12:48:35;;;;;;;;;;;;;;;;;;5090957;28;19916;-62
2024/03/27 12:51:00;;;;;;;;;;;;;;;;;;5091879;28;19957;-62
2024/03/27 12:53:25;;;;;;;;;;;;;;;;;;5097599;28;19957;-62
2024/03/27 12:55:51;;;;;;;;;;;;;;;;;;5111366;28;19912;-63
2024/03/27 12:58:16;;;;;;;;;;;;;;;;;;5105765;28;20010;-62
2024/03/27 13:00:42;;;;;;;;;;;;;;;;;;5091097;28;19953;-62
2024/03/27 13:03:07;;;;;;;;;;;;;;;;;;5108372;28;19951;-61
2024/03/27 13:05:32;;;;;;;;;;;;;;;;;;5109550;28;19916;-61
2024/03/27 13:07:57;;;;;;;;;;;;;;;;;;5108225;28;19912;-62
2024/03/27 13:10:22;;;;;;;;;;;;;;;;;;5110581;28;19913;-61
2024/03/27 13:12:47;;;;;;;;;;;;;;;;;;5097513;28;19945;-62
2024/03/27 13:15:13;;;;;;;;;;;;;;;;;;5091579;28;19909;-61
2024/03/27 13:17:38;;;;;;;;;;;;;;;;;;5092341;28;20379;-62
2024/03/27 13:20:04;;;;;;;;;;;;;;;;;;5108050;28;20386;-62
2024/03/27 13:22:29;;;;;;;;;;;;;;;;;;5110757;28;19922;-61
2024/03/27 13:24:54;;;;;;;;;;;;;;;;;;5095253;28;19912;-61
2024/03/27 13:27:19;;;;;;;;;;;;;;;;;;5091040;28;19955;-61
2024/03/27 13:29:44;;;;;;;;;;;;;;;;;;5103050;28;19919;-62
2024/03/27 13:32:10;;;;;;;;;;;;;;;;;;5108597;28;19923;-61
2024/03/27 13:34:35;;;;;;;;;;;;;;;;;;5106732;28;19916;-62
2024/03/27 13:37:01;;;;;;;;;;;;;;;;;;5110820;28;19912;-61
2024/03/27 13:39:26;;;;;;;;;;;;;;;;;;5108679;28;19922;-62
2024/03/27 13:41:51;;;;;;;;;;;;;;;;;;5108579;28;19934;-62
2024/03/27 13:44:16;;;;;;;;;;;;;;;;;;5096469;28;19915;-61
2024/03/27 13:46:41;;;;;;;;;;;;;;;;;;5106368;28;19960;-61
2024/03/27 13:49:06;;;;;;;;;;;;;;;;;;5093910;28;19916;-61
2024/03/27 13:51:31;;;;;;;;;;;;;;;;;;5103199;28;19986;-62
2024/03/27 13:53:56;;;;;;;;;;;;;;;;;;5110825;28;20354;-63
2024/03/27 13:56:23;;;;;;;;;;;;;;;;;;5110693;28;20069;-61
2024/03/27 13:58:48;;;;;;;;;;;;;;;;;;5111219;28;19943;-62
2024/03/27 14:01:13;;;;;;;;;;;;;;;;;;5111159;28;19959;-62
2024/03/27 14:03:38;;;;;;;;;;;;;;;;;;5104406;28;19908;-62
2024/03/27 14:06:03;;;;;;;;;;;;;;;;;;5104318;28;19920;-62
2024/03/27 14:08:29;;;;;;;;;;;;;;;;;;5090759;28;19915;-63
2024/03/27 14:10:54;;;;;;;;;;;;;;;;;;5111512;28;20586;-61
2024/03/27 14:13:19;;;;;;;;;;;;;;;;;;5102506;28;19908;-62
2024/03/27 14:15:44;;;;;;;;;;;;;;;;;;5092282;28;19912;-62
2024/03/27 14:18:09;;;;;;;;;;;;;;;;;;5093470;28;19914;-61
2024/03/27 14:20:34;;;;;;;;;;;;;;;;;;5107193;28;19966;-61
2024/03/27 14:22:59;;;;;;;;;;;;;;;;;;5102124;28;19919;-61
2024/03/27 14:25:24;;;;;;;;;;;;;;;;;;5114087;28;19919;-62
2024/03/27 14:27:49;;;;;;;;;;;;;;;;;;5113938;28;19998;-61
2024/03/27 14:30:15;;;;;;;;;;;;;;;;;;5100354;28;19920;-62
2024/03/27 14:32:40;;;;;;;;;;;;;;;;;;5113892;28;19915;-63
2024/03/27 14:35:05;;;;;;;;;;;;;;;;;;5101665;28;19916;-61
2024/03/27 14:37:30;;;;;;;;;;;;;;;;;;5102955;28;19912;-62
2024/03/27 14:39:57;;;;;;;;;;;;;;;;;;5089888;28;19999;-61
2024/03/27 14:42:22;;;;;;;;;;;;;;;;;;5084743;28;20377;-62
2024/03/27 14:44:47;;;;;;;;;;;;;;;;;;5085165;28;19916;-62
2024/03/27 14:47:12;;;;;;;;;;;;;;;;;;5094010;28;19908;-62
2024/03/27 14:49:37;;;;;;;;;;;;;;;;;;5089601;28;19951;-61
2024/03/27 14:52:02;;;;;;;;;;;;;;;;;;5082487;28;20353;-63
2024/03/27 14:54:28;;;;;;;;;;;;;;;;;;5082308;28;20368;-62
2024/03/27 14:56:53;;;;;;;;;;;;;;;;;;5092551;28;20575;-62
2024/03/27 14:59:18;;;;;;;;;;;;;;;;;;5092910;28;19912;-62
2024/03/27 15:01:43;;;;;;;;;;;;;;;;;;5093524;28;20690;-61
2024/03/27 15:04:08;;;;;;;;;;;;;;;;;;5081654;28;19913;-62
2024/03/27 15:06:33;;;;;;;;;;;;;;;;;;5088768;28;19920;-62
2024/03/27 15:08:58;;;;;;;;;;;;;;;;;;5092686;28;19969;-62
2024/03/27 15:11:23;;;;;;;;;;;;;;;;;;5092828;28;19908;-62
2024/03/27 15:13:48;;;;;;;;;;;;;;;;;;5077224;28;19917;-62
2024/03/27 15:16:14;;;;;;;;;;;;;;;;;;5086212;28;20453;-62
2024/03/27 15:18:39;;;;;;;;;;;;;;;;;;5078335;28;19923;-61
2024/03/27 15:21:04;;;;;;;;;;;;;;;;;;5084533;28;19924;-61
2024/03/27 15:23:29;;;;;;;;;;;;;;;;;;5072865;28;19919;-61
2024/03/27 15:25:55;;;;;;;;;;;;;;;;;;5086845;28;20337;-61
2024/03/27 15:28:20;;;;;;;;;;;;;;;;;;5092448;28;19912;-63
2024/03/27 15:30:45;;;;;;;;;;;;;;;;;;5085640;28;19916;-62
2024/03/27 15:33:11;;;;;;;;;;;;;;;;;;5081552;28;19917;-61
2024/03/27 15:35:36;;;;;;;;;;;;;;;;;;5082004;28;19915;-61
2024/03/27 15:38:01;;;;;;;;;;;;;;;;;;5074033;28;20369;-62
2024/03/27 15:40:27;;;;;;;;;;;;;;;;;;5072327;28;20633;-61
2024/03/27 15:42:52;;;;;;;;;;;;;;;;;;5074565;28;19921;-62
2024/03/27 15:45:17;;;;;;;;;;;;;;;;;;5090227;28;19924;-62
2024/03/27 15:47:42;;;;;;;;;;;;;;;;;;5092901;28;20422;-61
2024/03/27 15:50:07;;;;;;;;;;;;;;;;;;5088290;28;20438;-61
2024/03/27 15:52:32;;;;;;;;;;;;;;;;;;5081027;28;20415;-61
2024/03/27 15:54:57;;;;;;;;;;;;;;;;;;5092776;28;19904;-61
2024/03/27 15:57:22;;;;;;;;;;;;;;;;;;5089602;28;19908;-61
2024/03/27 15:59:48;;;;;;;;;;;;;;;;;;5075346;28;19908;-61
2024/03/27 16:02:13;;;;;;;;;;;;;;;;;;5090760;28;20345;-62
2024/03/27 16:04:38;;;;;;;;;;;;;;;;;;5087850;28;20343;-61
2024/03/27 16:07:03;;;;;;;;;;;;;;;;;;5082682;28;19973;-62
2024/03/27 16:09:28;;;;;;;;;;;;;;;;;;5071920;28;19971;-62
2024/03/27 16:11:53;;;;;;;;;;;;;;;;;;5071527;28;19958;-64
2024/03/27 16:14:18;;;;;;;;;;;;;;;;;;5072088;28;20015;-62
2024/03/27 16:16:43;;;;;;;;;;;;;;;;;;5072654;28;19919;-61
2024/03/27 16:19:09;;;;;;;;;;;;;;;;;;5071769;28;19912;-62
2024/03/27 16:21:34;;;;;;;;;;;;;;;;;;5086631;28;19916;-62
2024/03/27 16:23:59;;;;;;;;;;;;;;;;;;5075927;28;20007;-62
2024/03/27 16:26:24;;;;;;;;;;;;;;;;;;5085068;28;19919;-61
2024/03/27 16:28:49;;;;;;;;;;;;;;;;;;5081433;28;19916;-61
2024/03/27 16:31:14;;;;;;;;;;;;;;;;;;5078934;28;19913;-62